createdAt,value
2022-12-25T00:03:07.987Z,9.20
2022-12-25T00:08:10.080Z,9.26
2022-12-25T00:13:11.972Z,9.34
2022-12-25T00:18:13.869Z,9.33
2022-12-25T00:23:15.714Z,9.46
2022-12-25T00:28:17.856Z,9.51
2022-12-25T00:33:19.738Z,9.51
2022-12-25T00:38:21.601Z,9.42
2022-12-25T00:43:23.516Z,9.39
2022-12-25T00:48:26.547Z,9.31
2022-12-25T00:53:29.166Z,9.28
2022-12-25T00:58:32.892Z,9.28
2022-12-25T01:03:34.820Z,9.14
2022-12-25T01:08:38.841Z,8.92
2022-12-25T01:13:40.673Z,8.78
2022-12-25T01:18:43.449Z,8.70
2022-12-25T01:23:45.335Z,8.63
2022-12-25T01:28:47.372Z,8.57
2022-12-25T01:33:49.692Z,8.45
2022-12-25T01:38:52.935Z,8.34
2022-12-25T01:44:00.811Z,8.35
2022-12-25T01:49:07.279Z,8.32
2022-12-25T01:54:16.233Z,8.16
2022-12-25T01:59:21.366Z,8.07
2022-12-25T02:04:41.365Z,8.06
2022-12-25T02:09:43.845Z,8.00
2022-12-25T02:14:48.483Z,7.98
2022-12-25T02:20:27.649Z,7.93
2022-12-25T02:25:38.216Z,7.85
2022-12-25T02:30:47.118Z,7.78
2022-12-25T02:35:53.442Z,7.70
2022-12-25T02:41:07.473Z,7.64
2022-12-25T02:46:33.234Z,7.65
2022-12-25T02:51:57.584Z,7.61
2022-12-25T02:57:24.703Z,7.56
2022-12-25T03:02:47.630Z,7.50
2022-12-25T03:07:50.057Z,7.54
2022-12-25T03:12:53.952Z,7.44
2022-12-25T03:17:59.364Z,7.38
2022-12-25T03:23:20.631Z,7.29
2022-12-25T03:28:22.500Z,7.25
2022-12-25T03:34:03.709Z,7.24
2022-12-25T03:39:28.760Z,7.22
2022-12-25T03:45:11.863Z,7.21
2022-12-25T03:51:08.117Z,7.21
2022-12-25T03:56:29.496Z,7.24
2022-12-25T04:01:50.275Z,7.33
2022-12-25T04:07:10.799Z,7.46
2022-12-25T04:12:30.901Z,7.54
2022-12-25T04:17:51.485Z,7.59
2022-12-25T04:23:12.075Z,7.54
2022-12-25T04:28:32.881Z,7.45
2022-12-25T04:33:53.541Z,7.35
2022-12-25T04:38:55.357Z,7.34
2022-12-25T04:43:57.153Z,7.37
2022-12-25T04:48:59.012Z,7.45
2022-12-25T04:54:00.835Z,7.50
2022-12-25T04:59:02.671Z,7.66
2022-12-25T05:04:04.656Z,7.73
2022-12-25T05:09:06.909Z,7.74
2022-12-25T05:14:08.735Z,7.80
2022-12-25T05:19:11.050Z,7.86
2022-12-25T05:24:12.923Z,7.83
2022-12-25T05:29:14.722Z,7.76
2022-12-25T05:34:16.601Z,7.57
2022-12-25T05:39:18.625Z,7.40
2022-12-25T05:44:20.449Z,7.30
2022-12-25T05:49:22.354Z,7.35
2022-12-25T05:54:24.242Z,7.36
2022-12-25T05:59:28.642Z,7.34
2022-12-25T06:04:30.563Z,7.17
2022-12-25T06:09:32.449Z,7.19
2022-12-25T06:14:36.788Z,7.27
2022-12-25T06:19:38.712Z,7.36
2022-12-25T06:24:41.246Z,7.41
2022-12-25T06:29:43.081Z,7.43
2022-12-25T06:34:45.116Z,7.44
2022-12-25T06:39:48.145Z,7.39
2022-12-25T06:44:51.148Z,7.42
2022-12-25T06:49:52.954Z,7.44
2022-12-25T06:54:54.803Z,7.44
2022-12-25T06:59:56.716Z,7.49
2022-12-25T07:05:00.177Z,7.47
2022-12-25T07:10:02.139Z,7.40
2022-12-25T07:15:04.461Z,7.26
2022-12-25T07:20:07.129Z,7.15
2022-12-25T07:25:09.064Z,7.21
2022-12-25T07:30:11.542Z,7.25
2022-12-25T07:35:13.421Z,7.35
2022-12-25T07:40:15.443Z,7.46
2022-12-25T07:45:17.407Z,7.47
2022-12-25T07:50:19.531Z,7.46
2022-12-25T07:55:21.464Z,7.56
2022-12-25T08:00:23.389Z,7.69
2022-12-25T08:05:25.280Z,7.87
2022-12-25T08:10:27.107Z,8.12
2022-12-25T08:15:30.905Z,8.31
2022-12-25T08:20:33.856Z,8.57
2022-12-25T08:25:35.755Z,8.87
2022-12-25T08:30:41.605Z,9.19
2022-12-25T08:35:44.190Z,9.52
2022-12-25T08:40:46.694Z,9.80
2022-12-25T08:45:49.307Z,9.92
2022-12-25T08:50:52.937Z,9.91
2022-12-25T08:56:04.603Z,9.98
2022-12-25T09:01:07.533Z,10.23
2022-12-25T09:06:12.631Z,10.46
2022-12-25T09:11:15.751Z,10.61
2022-12-25T09:16:20.774Z,10.68
2022-12-25T09:21:22.960Z,10.91
2022-12-25T09:26:25.042Z,11.21
2022-12-25T09:31:27.014Z,11.42
2022-12-25T09:36:29.374Z,11.55
2022-12-25T09:41:46.162Z,11.65
2022-12-25T09:46:54.074Z,11.69
2022-12-25T09:52:05.151Z,11.77
2022-12-25T09:57:12.205Z,11.73
2022-12-25T10:02:45.160Z,11.82
2022-12-25T10:07:53.312Z,11.90
2022-12-25T10:13:22.641Z,11.86
2022-12-25T10:19:10.184Z,11.97
2022-12-25T10:24:36.924Z,12.21
2022-12-25T10:29:39.853Z,12.44
2022-12-25T10:34:43.704Z,12.57
2022-12-25T10:39:46.829Z,12.68
2022-12-25T10:44:59.736Z,12.84
2022-12-25T10:50:12.054Z,12.91
2022-12-25T10:55:23.531Z,12.97
2022-12-25T11:00:32.130Z,12.93
2022-12-25T11:05:37.180Z,12.95
2022-12-25T11:10:44.236Z,12.98
2022-12-25T11:15:49.675Z,13.01
2022-12-25T11:20:58.361Z,13.08
2022-12-25T11:26:06.027Z,13.20
2022-12-25T11:31:13.247Z,13.24
2022-12-25T11:36:35.116Z,13.28
2022-12-25T11:41:39.004Z,13.26
2022-12-25T11:46:46.202Z,13.18
2022-12-25T11:51:51.690Z,13.06
2022-12-25T11:56:55.979Z,13.01
2022-12-25T12:02:26.068Z,12.97
2022-12-25T12:07:32.448Z,12.94
2022-12-25T12:12:55.887Z,12.84
2022-12-25T12:18:22.397Z,12.74
2022-12-25T12:23:24.432Z,12.66
2022-12-25T12:28:29.252Z,12.56
2022-12-25T12:33:36.959Z,12.46
2022-12-25T12:38:41.094Z,12.42
2022-12-25T12:43:57.289Z,12.38
2022-12-25T12:49:24.247Z,12.84
2022-12-25T12:54:27.997Z,13.77
2022-12-25T12:59:48.739Z,13.79
2022-12-25T13:05:14.185Z,13.28
2022-12-25T13:10:38.063Z,12.88
2022-12-25T13:15:40.084Z,12.52
2022-12-25T13:20:54.852Z,12.20
2022-12-25T13:25:59.892Z,11.96
2022-12-25T13:31:05.685Z,11.90
2022-12-25T13:36:12.939Z,11.85
2022-12-25T13:41:43.491Z,11.82
2022-12-25T13:46:45.766Z,11.83
2022-12-25T13:51:48.769Z,11.86
2022-12-25T13:56:53.883Z,11.83
2022-12-25T14:01:57.963Z,11.70
2022-12-25T14:07:10.297Z,11.70
2022-12-25T14:12:19.119Z,11.76
2022-12-25T14:17:23.130Z,11.87
2022-12-25T14:22:26.249Z,11.94
2022-12-25T14:27:30.685Z,11.98
2022-12-25T14:32:43.319Z,11.98
2022-12-25T14:37:45.824Z,11.95
2022-12-25T14:43:02.155Z,11.86
2022-12-25T14:48:24.426Z,11.80
2022-12-25T14:53:34.460Z,11.78
2022-12-25T14:58:43.507Z,11.78
2022-12-25T15:03:45.371Z,11.78
2022-12-25T15:09:02.996Z,11.79
2022-12-25T15:14:04.932Z,11.73
2022-12-25T15:19:08.818Z,11.75
2022-12-25T15:24:13.529Z,11.73
2022-12-25T15:29:15.390Z,11.65
2022-12-25T15:34:21.059Z,11.65
2022-12-25T15:39:22.962Z,11.59
2022-12-25T15:44:25.445Z,11.61
2022-12-25T15:49:27.305Z,11.60
2022-12-25T15:54:29.745Z,11.62
2022-12-25T15:59:32.353Z,11.66
2022-12-25T16:04:34.535Z,11.73
2022-12-25T16:09:36.501Z,11.80
2022-12-25T16:14:38.366Z,11.89
2022-12-25T16:19:41.857Z,11.96
2022-12-25T16:24:43.683Z,11.97
2022-12-25T16:29:45.565Z,11.98
2022-12-25T16:34:49.182Z,11.94
2022-12-25T16:39:51.012Z,11.94
2022-12-25T16:44:52.963Z,12.00
2022-12-25T16:49:54.786Z,12.07
2022-12-25T16:54:56.600Z,12.12
2022-12-25T16:59:58.539Z,12.17
2022-12-25T17:05:01.100Z,12.15
2022-12-25T17:10:04.236Z,12.02
2022-12-25T17:15:07.986Z,11.97
2022-12-25T17:20:10.238Z,11.89
2022-12-25T17:25:12.356Z,11.88
2022-12-25T17:30:14.600Z,11.83
2022-12-25T17:35:17.886Z,11.75
2022-12-25T17:40:19.720Z,11.69
2022-12-25T17:45:21.754Z,11.70
2022-12-25T17:50:25.644Z,11.73
2022-12-25T17:55:29.347Z,11.77
2022-12-25T18:00:31.444Z,11.72
2022-12-25T18:05:36.389Z,11.74
2022-12-25T18:10:39.958Z,11.79
2022-12-25T18:15:41.873Z,11.87
2022-12-25T18:20:43.762Z,11.93
2022-12-25T18:25:45.687Z,11.99
2022-12-25T18:30:48.435Z,12.05
2022-12-25T18:35:50.862Z,12.11
2022-12-25T18:40:52.738Z,12.20
2022-12-25T18:45:59.462Z,12.36
2022-12-25T18:51:07.389Z,12.52
2022-12-25T18:56:17.698Z,12.72
2022-12-25T19:01:22.557Z,12.90
2022-12-25T19:06:27.249Z,13.04
2022-12-25T19:11:29.120Z,13.08
2022-12-25T19:16:31.240Z,13.10
2022-12-25T19:21:33.132Z,13.15
2022-12-25T19:26:36.062Z,13.20
2022-12-25T19:31:38.369Z,13.24
2022-12-25T19:36:40.740Z,13.24
2022-12-25T19:41:42.668Z,13.22
2022-12-25T19:46:44.581Z,13.17
2022-12-25T19:51:47.101Z,13.17
2022-12-25T19:56:49.505Z,13.18
2022-12-25T20:01:51.919Z,13.17
2022-12-25T20:06:54.071Z,13.20
2022-12-25T20:11:55.994Z,13.26
2022-12-25T20:16:57.906Z,13.32
2022-12-25T20:22:01.190Z,13.36
2022-12-25T20:27:03.214Z,13.39
2022-12-25T20:32:05.619Z,13.41
2022-12-25T20:37:07.713Z,13.41
2022-12-25T20:42:09.803Z,13.44
2022-12-25T20:47:12.418Z,13.44
2022-12-25T20:52:14.314Z,13.43
2022-12-25T20:57:16.157Z,13.39
2022-12-25T21:02:35.379Z,13.42
2022-12-25T21:07:38.295Z,13.45
2022-12-25T21:12:40.147Z,13.42
2022-12-25T21:17:41.963Z,13.44
2022-12-25T21:22:43.890Z,13.52
2022-12-25T21:27:45.723Z,13.57
2022-12-25T21:33:06.174Z,13.64
2022-12-25T21:38:08.045Z,13.61
2022-12-25T21:43:14.268Z,13.64
2022-12-25T21:48:16.138Z,13.64
2022-12-25T21:53:20.969Z,13.61
2022-12-25T21:58:23.014Z,13.62
2022-12-25T22:03:25.095Z,13.64
2022-12-25T22:08:34.106Z,13.68
2022-12-25T22:13:54.473Z,13.64
2022-12-25T22:19:15.078Z,13.68
2022-12-25T22:24:17.141Z,13.79
2022-12-25T22:29:18.966Z,13.90
2022-12-25T22:34:20.848Z,14.00
2022-12-25T22:39:22.702Z,14.08
2022-12-25T22:44:26.314Z,14.18
2022-12-25T22:49:28.172Z,14.24
2022-12-25T22:54:31.678Z,14.28
2022-12-25T22:59:33.997Z,14.30
2022-12-25T23:04:36.059Z,14.31
2022-12-25T23:09:37.980Z,14.32
2022-12-25T23:14:39.846Z,14.36
2022-12-25T23:20:00.612Z,14.37
2022-12-25T23:25:20.723Z,14.35
2022-12-25T23:30:22.600Z,14.52
2022-12-25T23:35:24.461Z,14.66
2022-12-25T23:40:26.316Z,14.70
2022-12-25T23:45:28.136Z,14.70
2022-12-25T23:50:30.008Z,14.72
2022-12-25T23:55:33.694Z,14.73
